Time;durP1;ratioP1;P1;durP2;ratioP2;P2;SDS_P1;SDS_P2;PMS_P1;PMS_P2;Temp;Humidity;BMP_temperature;BMP_pressure;BME280_temperature;BME280_humidity;BME280_pressure;Samples;Min_cycle;Max_cycle;Signal;HPM_P1;HPM_P2
2023/09/18 00:01:56;;;;;;;16.10;2.20;;;16.80;99.90;;;;;;5005510;28;20471;-89
2023/09/18 00:04:21;;;;;;;18.73;2.20;;;16.80;99.90;;;;;;5004732;28;20061;-90
2023/09/18 00:06:48;;;;;;;11.27;2.30;;;16.80;99.90;;;;;;5012644;28;20041;-87
2023/09/18 00:09:13;;;;;;;14.00;1.95;;;16.90;99.90;;;;;;5012077;28;20025;-90
2023/09/18 00:11:39;;;;;;;8.82;1.80;;;16.80;99.90;;;;;;5001347;28;20057;-89
2023/09/18 00:14:05;;;;;;;7.97;1.98;;;16.90;99.90;;;;;;4998997;28;20140;-90
2023/09/18 00:16:31;;;;;;;9.30;2.15;;;16.90;99.90;;;;;;5011125;28;20041;-90
2023/09/18 00:18:57;;;;;;;6.80;1.75;;;16.90;99.90;;;;;;5011550;28;20022;-91
2023/09/18 00:21:25;;;;;;;10.20;2.00;;;16.90;99.90;;;;;;5016859;28;20061;-90
2023/09/18 00:23:51;;;;;;;5.88;2.13;;;16.90;99.90;;;;;;5011277;28;20028;-89
2023/09/18 00:26:16;;;;;;;6.68;2.42;;;16.90;99.90;;;;;;5009587;28;20022;-86
2023/09/18 00:28:42;;;;;;;12.85;2.00;;;16.90;99.90;;;;;;5009746;28;20545;-87
2023/09/18 00:31:08;;;;;;;6.00;1.65;;;16.90;99.90;;;;;;5008799;28;20026;-86
2023/09/18 00:33:33;;;;;;;10.43;2.13;;;17.00;99.90;;;;;;5010869;28;20448;-86
2023/09/18 00:35:59;;;;;;;14.05;2.50;;;17.00;99.90;;;;;;5011090;28;20108;-83
2023/09/18 00:38:24;;;;;;;11.18;2.80;;;17.00;99.90;;;;;;5009608;28;20042;-85
2023/09/18 00:40:50;;;;;;;11.73;3.17;;;17.00;99.90;;;;;;5009750;28;20050;-84
2023/09/18 00:43:15;;;;;;;7.70;3.08;;;17.00;99.90;;;;;;5012169;28;20068;-83
2023/09/18 00:45:47;;;;;;;13.68;3.00;;;17.10;99.90;;;;;;5011974;28;20030;-82
2023/09/18 00:48:15;;;;;;;17.02;2.80;;;17.10;99.90;;;;;;5011684;28;20087;-87
2023/09/18 00:50:41;;;;;;;11.85;2.60;;;17.20;99.90;;;;;;5010557;28;20062;-87
2023/09/18 00:53:09;;;;;;;6.80;2.20;;;17.20;99.90;;;;;;5011322;28;20034;-86
2023/09/18 00:55:37;;;;;;;7.55;2.05;;;17.10;99.90;;;;;;5010070;28;20077;-84
2023/09/18 00:58:03;;;;;;;6.63;2.38;;;17.00;99.90;;;;;;4993945;28;20042;-84
2023/09/18 01:00:29;;;;;;;7.30;2.33;;;17.10;99.90;;;;;;5013793;28;20041;-86
2023/09/18 01:02:55;;;;;;;9.93;2.28;;;17.00;99.90;;;;;;5004243;28;20034;-85
2023/09/18 01:05:21;;;;;;;10.93;2.60;;;17.00;99.90;;;;;;5017824;28;20117;-89
2023/09/18 01:07:47;;;;;;;8.13;2.67;;;17.00;99.90;;;;;;4999878;28;20050;-90
2023/09/18 01:10:16;;;;;;;10.10;2.72;;;17.00;99.90;;;;;;5011448;28;20049;-88
2023/09/18 01:12:46;;;;;;;10.45;3.08;;;17.00;99.90;;;;;;5013607;28;20030;-89
2023/09/18 01:15:45;;;;;;;7.05;2.40;;;16.90;99.90;;;;;;5017898;28;20048;-91
2023/09/18 01:18:10;;;;;;;9.57;2.30;;;16.80;99.90;;;;;;5017109;28;20038;-92
2023/09/18 01:20:36;;;;;;;7.60;2.70;;;16.80;99.90;;;;;;5018944;28;20030;-91
2023/09/18 01:23:02;;;;;;;7.75;2.58;;;16.70;99.90;;;;;;5010182;28;20046;-91
2023/09/18 01:25:27;;;;;;;8.32;2.30;;;16.70;99.90;;;;;;5011818;28;20347;-92
2023/09/18 01:27:53;;;;;;;10.90;2.50;;;16.70;99.90;;;;;;5012759;28;20124;-91
2023/09/18 01:30:18;;;;;;;13.35;3.05;;;16.60;99.90;;;;;;5013421;28;20053;-90
2023/09/18 01:32:45;;;;;;;9.32;2.55;;;16.60;99.90;;;;;;5006166;28;20030;-90
2023/09/18 01:35:12;;;;;;;12.95;2.65;;;16.50;99.90;;;;;;5007985;28;20026;-90
2023/09/18 01:37:39;;;;;;;10.35;2.58;;;16.40;99.90;;;;;;5010624;28;20041;-90
2023/09/18 01:40:07;;;;;;;11.13;3.15;;;16.40;99.90;;;;;;5009352;28;20156;-89
2023/09/18 01:42:34;;;;;;;14.13;2.88;;;16.40;99.90;;;;;;5009874;28;20672;-90
2023/09/18 01:45:00;;;;;;;13.38;3.22;;;16.40;99.90;;;;;;5007794;28;20053;-87
2023/09/18 01:47:28;;;;;;;9.13;2.88;;;16.50;99.90;;;;;;4998769;28;20034;-89
2023/09/18 01:49:53;;;;;;;17.63;3.95;;;16.50;99.90;;;;;;4992332;28;20022;-87
2023/09/18 01:52:19;;;;;;;12.70;3.03;;;16.50;99.90;;;;;;5003852;28;20479;-88
2023/09/18 01:54:45;;;;;;;10.82;2.97;;;16.50;99.90;;;;;;5001323;28;20132;-88
2023/09/18 01:57:12;;;;;;;14.32;3.42;;;16.50;99.90;;;;;;5012096;28;20045;-89
2023/09/18 01:59:37;;;;;;;18.40;3.20;;;16.50;99.90;;;;;;5011432;28;20703;-87
2023/09/18 02:02:07;;;;;;;12.02;3.53;;;16.50;99.90;;;;;;5009053;28;20054;-87
2023/09/18 02:04:33;;;;;;;12.30;3.20;;;16.40;99.90;;;;;;5008109;28;20032;-89
2023/09/18 02:06:59;;;;;;;16.85;3.20;;;16.30;99.90;;;;;;5019720;28;20098;-88
2023/09/18 02:09:24;;;;;;;11.85;3.13;;;16.30;99.90;;;;;;5008354;28;20033;-90
2023/09/18 02:11:50;;;;;;;8.05;3.10;;;16.20;99.90;;;;;;4998866;28;20035;-89
2023/09/18 02:14:15;;;;;;;12.18;3.30;;;16.20;99.90;;;;;;5010689;28;20102;-88
2023/09/18 02:16:46;;;;;;;15.18;3.50;;;16.10;99.90;;;;;;5013230;28;20046;-91
2023/09/18 02:19:17;;;;;;;11.55;3.35;;;16.10;99.90;;;;;;5011741;28;20029;-88
2023/09/18 02:21:43;;;;;;;13.23;3.50;;;16.10;99.90;;;;;;5009320;28;20125;-90
2023/09/18 02:24:09;;;;;;;13.60;3.70;;;16.10;99.90;;;;;;5009399;28;20092;-89
2023/09/18 02:26:34;;;;;;;16.98;3.50;;;16.10;99.90;;;;;;5011374;28;20887;-89
2023/09/18 02:29:03;;;;;;;15.02;3.38;;;16.10;99.90;;;;;;5011399;28;20102;-89
2023/09/18 02:31:29;;;;;;;13.73;3.25;;;16.10;99.90;;;;;;5010837;28;20030;-88
2023/09/18 02:33:55;;;;;;;25.55;3.47;;;16.10;99.90;;;;;;5010379;28;20093;-90
2023/09/18 02:36:20;;;;;;;19.63;3.63;;;16.10;99.90;;;;;;5010704;28;20041;-90
2023/09/18 02:38:46;;;;;;;20.63;3.65;;;16.10;99.90;;;;;;5008527;28;20029;-88
2023/09/18 02:41:11;;;;;;;15.63;4.00;;;16.10;99.90;;;;;;5008613;28;20462;-88
2023/09/18 02:43:37;;;;;;;17.20;3.75;;;16.10;99.90;;;;;;5008402;28;20033;-89
2023/09/18 02:46:04;;;;;;;18.27;3.50;;;16.10;99.90;;;;;;5007495;28;20036;-89
2023/09/18 02:48:30;;;;;;;16.38;3.72;;;16.10;99.90;;;;;;5007256;28;20038;-89
2023/09/18 02:50:55;;;;;;;15.60;3.17;;;16.10;99.90;;;;;;5007953;28;20027;-90
2023/09/18 02:53:23;;;;;;;16.88;3.40;;;16.10;99.90;;;;;;5008192;28;20228;-89
2023/09/18 02:55:53;;;;;;;16.15;3.60;;;16.00;99.90;;;;;;5000640;28;20042;-89
2023/09/18 02:58:19;;;;;;;18.20;3.40;;;16.00;99.90;;;;;;5008061;28;20110;-90
2023/09/18 03:00:48;;;;;;;10.68;3.28;;;15.90;99.90;;;;;;5006387;28;20042;-90
2023/09/18 03:03:14;;;;;;;12.65;3.65;;;15.90;99.90;;;;;;4996074;28;20471;-90
2023/09/18 03:05:40;;;;;;;11.18;3.50;;;15.90;99.90;;;;;;5006031;28;20032;-89
2023/09/18 03:08:06;;;;;;;20.10;3.78;;;16.00;99.90;;;;;;5000672;28;20027;-89
2023/09/18 03:10:37;;;;;;;9.95;3.50;;;16.10;99.90;;;;;;5003523;28;20045;-90
2023/09/18 03:13:03;;;;;;;13.63;3.83;;;16.10;99.90;;;;;;4993887;28;20026;-89
2023/09/18 03:15:30;;;;;;;11.18;3.63;;;16.10;99.90;;;;;;5008124;28;20030;-91
2023/09/18 03:17:57;;;;;;;15.27;3.03;;;16.20;99.90;;;;;;5003048;28;20089;-90
2023/09/18 03:20:23;;;;;;;13.68;3.60;;;16.20;99.90;;;;;;5007412;28;20079;-90
2023/09/18 03:22:54;;;;;;;13.45;3.33;;;16.20;99.90;;;;;;5006983;28;20171;-89
2023/09/18 03:25:19;;;;;;;14.30;3.60;;;16.30;99.90;;;;;;5008064;28;20061;-89
2023/09/18 03:27:45;;;;;;;9.95;2.72;;;16.40;99.90;;;;;;5010692;28;20075;-89
2023/09/18 03:30:15;;;;;;;18.77;3.30;;;16.50;99.90;;;;;;5010228;28;20543;-90
2023/09/18 03:32:42;;;;;;;17.50;2.67;;;16.60;99.90;;;;;;5011173;28;20426;-90
2023/09/18 03:35:15;;;;;;;9.30;2.78;;;16.60;99.90;;;;;;5011006;28;20030;-89
2023/09/18 03:37:41;;;;;;;11.88;2.83;;;16.50;99.90;;;;;;4991965;28;20151;-89
2023/09/18 03:40:08;;;;;;;12.65;2.78;;;16.60;99.90;;;;;;5007736;28;20554;-88
2023/09/18 03:42:34;;;;;;;13.30;3.15;;;16.70;99.90;;;;;;5010440;28;20432;-88
2023/09/18 03:44:59;;;;;;;17.40;3.47;;;16.70;99.90;;;;;;5010270;28;20033;-89
2023/09/18 03:47:25;;;;;;;13.80;3.47;;;16.70;99.90;;;;;;5010539;28;20048;-89
2023/09/18 03:49:51;;;;;;;11.35;3.35;;;16.70;99.90;;;;;;5003650;28;20097;-88
2023/09/18 03:52:17;;;;;;;13.85;3.25;;;16.80;99.90;;;;;;5009604;28;20038;-90
2023/09/18 03:54:42;;;;;;;14.45;3.63;;;16.80;99.90;;;;;;5010051;28;20084;-88
2023/09/18 03:57:08;;;;;;;12.05;3.42;;;16.80;99.90;;;;;;5001064;28;20563;-88
2023/09/18 03:59:33;;;;;;;17.35;3.50;;;16.80;99.90;;;;;;5002563;28;20028;-87
2023/09/18 04:01:59;;;;;;;13.80;3.33;;;16.80;99.90;;;;;;5009698;28;20630;-88
2023/09/18 04:04:24;;;;;;;8.63;3.33;;;16.80;99.90;;;;;;5010069;28;20042;-89
2023/09/18 04:06:50;;;;;;;14.77;3.85;;;16.90;99.90;;;;;;4995501;28;20041;-88
2023/09/18 04:09:15;;;;;;;10.80;3.75;;;16.90;99.90;;;;;;4990525;28;20097;-88
2023/09/18 04:11:41;;;;;;;9.30;3.90;;;16.90;99.90;;;;;;5006563;28;20125;-89
2023/09/18 04:14:07;;;;;;;16.00;5.07;;;16.90;99.90;;;;;;5009170;28;20081;-88
2023/09/18 04:16:36;;;;;;;12.40;4.75;;;16.90;99.90;;;;;;4997128;28;20133;-86
2023/09/18 04:19:02;;;;;;;12.60;4.50;;;17.00;99.90;;;;;;4988518;28;20061;-90
2023/09/18 04:21:29;;;;;;;13.48;4.57;;;17.00;99.90;;;;;;5004687;28;20069;-88
2023/09/18 04:23:57;;;;;;;17.75;4.90;;;17.00;99.90;;;;;;5008995;28;20147;-87
2023/09/18 04:26:23;;;;;;;14.27;4.65;;;16.90;99.90;;;;;;5008388;28;20057;-87
2023/09/18 04:28:49;;;;;;;14.23;4.10;;;16.90;99.90;;;;;;5008618;28;20111;-87
2023/09/18 04:31:16;;;;;;;14.40;3.63;;;16.90;99.90;;;;;;5003672;28;20058;-87
2023/09/18 04:33:41;;;;;;;14.00;4.25;;;16.90;99.90;;;;;;5006604;28;20123;-86
2023/09/18 04:36:07;;;;;;;10.70;3.38;;;16.90;99.90;;;;;;5006376;28;20034;-85
2023/09/18 04:38:33;;;;;;;15.27;3.78;;;16.90;99.90;;;;;;5007318;28;20060;-86
2023/09/18 04:41:02;;;;;;;18.27;3.50;;;17.00;99.90;;;;;;5006656;28;20025;-85
2023/09/18 04:43:29;;;;;;;16.15;3.65;;;16.90;99.90;;;;;;5007420;28;20056;-87
2023/09/18 04:45:55;;;;;;;11.73;3.17;;;16.90;99.90;;;;;;5002591;28;20022;-86
2023/09/18 04:48:21;;;;;;;16.67;3.60;;;17.00;99.90;;;;;;5004549;28;20040;-85
2023/09/18 04:50:48;;;;;;;8.75;3.25;;;17.00;99.90;;;;;;5002812;28;20694;-87
2023/09/18 04:53:14;;;;;;;10.23;3.22;;;17.00;99.90;;;;;;5008091;28;20037;-88
2023/09/18 04:55:39;;;;;;;15.40;3.20;;;17.00;99.90;;;;;;5002417;28;20025;-86
2023/09/18 04:58:06;;;;;;;16.08;3.83;;;16.90;99.90;;;;;;5005927;28;20057;-87
2023/09/18 05:00:33;;;;;;;10.27;3.03;;;16.90;99.90;;;;;;5004631;28;20525;-88
2023/09/18 05:03:01;;;;;;;11.55;3.50;;;17.00;99.90;;;;;;4994768;28;20025;-86
2023/09/18 05:05:27;;;;;;;15.63;3.63;;;17.00;99.90;;;;;;4989758;28;20113;-87
2023/09/18 05:07:53;;;;;;;16.02;3.33;;;16.90;99.90;;;;;;5002480;28;20117;-88
2023/09/18 05:10:19;;;;;;;13.63;3.67;;;16.90;99.90;;;;;;5005916;28;20479;-88
2023/09/18 05:12:45;;;;;;;15.23;3.80;;;16.90;99.90;;;;;;5004719;28;20096;-87
2023/09/18 05:15:12;;;;;;;12.48;3.00;;;16.90;99.90;;;;;;4995912;28;20542;-85
2023/09/18 05:17:42;;;;;;;10.43;3.00;;;17.00;99.90;;;;;;4986690;28;20042;-86
2023/09/18 05:20:10;;;;;;;8.90;2.60;;;17.00;99.90;;;;;;4997025;28;20199;-85
2023/09/18 05:22:37;;;;;;;14.63;3.60;;;17.00;99.90;;;;;;5005626;28;20030;-87
2023/09/18 05:25:04;;;;;;;14.05;3.72;;;17.10;99.90;;;;;;5006283;28;20034;-85
2023/09/18 05:27:29;;;;;;;9.85;3.17;;;17.00;99.90;;;;;;4997657;28;20057;-86
2023/09/18 05:29:55;;;;;;;9.13;2.88;;;17.10;99.90;;;;;;4988746;28;20030;-84
2023/09/18 05:32:20;;;;;;;15.30;3.40;;;17.10;99.90;;;;;;5006049;28;20132;-86
2023/09/18 05:34:46;;;;;;;15.18;3.33;;;17.00;99.90;;;;;;5005709;28;20045;-85
2023/09/18 05:37:11;;;;;;;10.25;2.92;;;17.00;99.90;;;;;;5006256;28;20049;-85
2023/09/18 05:39:37;;;;;;;16.48;3.38;;;17.10;99.90;;;;;;4999301;28;20049;-87
2023/09/18 05:42:03;;;;;;;11.10;3.22;;;17.00;99.90;;;;;;5005542;28;20510;-84
2023/09/18 05:44:28;;;;;;;12.23;3.70;;;17.00;99.90;;;;;;5004771;28;20402;-86
2023/09/18 05:46:54;;;;;;;9.75;3.33;;;16.90;99.90;;;;;;5005294;28;20040;-86
2023/09/18 05:49:20;;;;;;;12.85;3.15;;;16.90;99.90;;;;;;5006034;28;20398;-88
2023/09/18 05:51:47;;;;;;;16.75;3.85;;;16.80;99.90;;;;;;5003379;28;20045;-86
2023/09/18 05:54:12;;;;;;;16.75;3.40;;;16.80;99.90;;;;;;4993681;28;20032;-86
2023/09/18 05:56:38;;;;;;;11.20;3.60;;;16.70;99.90;;;;;;5004602;28;20391;-86
2023/09/18 05:59:03;;;;;;;12.80;3.67;;;16.70;99.90;;;;;;5005080;28;20080;-87
2023/09/18 06:01:29;;;;;;;17.02;4.35;;;16.60;99.90;;;;;;5003174;28;20041;-86
2023/09/18 06:03:55;;;;;;;15.52;4.30;;;16.60;99.90;;;;;;4996904;28;20041;-85
2023/09/18 06:06:21;;;;;;;12.32;4.93;;;16.50;99.90;;;;;;4986921;28;20030;-86
2023/09/18 06:08:46;;;;;;;664.45;469.45;;;16.50;99.90;;;;;;4993954;28;20096;-86
2023/09/18 06:11:12;;;;;;;243.77;138.48;;;16.50;99.90;;;;;;5005422;28;20488;-85
2023/09/18 06:13:38;;;;;;;46.60;24.50;;;16.50;99.90;;;;;;5005858;28;20022;-85
2023/09/18 06:16:07;;;;;;;15.30;8.73;;;16.50;99.90;;;;;;5003845;28;20373;-86
2023/09/18 06:18:33;;;;;;;21.02;11.18;;;16.50;99.90;;;;;;5002608;28;20029;-85
2023/09/18 06:20:59;;;;;;;19.23;12.18;;;16.50;99.90;;;;;;5002306;28;20097;-86
2023/09/18 06:23:24;;;;;;;21.17;11.55;;;16.50;99.90;;;;;;5003409;28;20037;-85
2023/09/18 06:25:55;;;;;;;17.52;10.15;;;16.50;99.90;;;;;;4998005;28;20022;-85
2023/09/18 06:28:21;;;;;;;;;;;16.50;99.90;;;;;;4994583;28;20098;-85
2023/09/18 06:30:47;;;;;;;13.20;6.40;;;16.50;99.90;;;;;;4997490;28;20030;-85
2023/09/18 06:33:13;;;;;;;9.48;5.57;;;16.60;99.90;;;;;;5002342;28;20029;-85
2023/09/18 06:35:39;;;;;;;14.80;5.97;;;16.60;99.90;;;;;;5004472;28;20030;-85
2023/09/18 06:38:06;;;;;;;12.25;6.18;;;16.70;99.90;;;;;;4998668;28;20046;-84
2023/09/18 06:40:32;;;;;;;17.33;6.63;;;16.90;99.90;;;;;;5001340;28;20199;-86
2023/09/18 06:43:00;;;;;;;12.10;7.65;;;17.20;99.90;;;;;;5005882;28;20523;-85
2023/09/18 06:45:27;;;;;;;16.75;7.60;;;17.40;99.90;;;;;;5000814;28;20476;-86
2023/09/18 06:47:53;;;;;;;14.95;6.90;;;17.70;99.90;;;;;;5006776;28;20168;-85
2023/09/18 06:50:18;;;;;;;13.40;6.38;;;17.90;99.90;;;;;;5006111;28;20026;-84
2023/09/18 06:52:44;;;;;;;16.52;7.05;;;18.10;99.90;;;;;;5004660;28;20029;-84
2023/09/18 06:55:10;;;;;;;13.05;6.43;;;18.30;99.90;;;;;;5005090;28;20055;-85
2023/09/18 06:57:36;;;;;;;10.30;5.97;;;18.50;99.90;;;;;;5002701;28;20060;-86
2023/09/18 07:00:01;;;;;;;13.30;5.53;;;18.60;99.90;;;;;;5008478;28;20112;-84
2023/09/18 07:02:27;;;;;;;10.82;5.63;;;18.40;99.90;;;;;;5011201;28;20103;-85
2023/09/18 07:04:53;;;;;;;7.53;4.45;;;18.30;99.90;;;;;;5011488;28;20095;-84
2023/09/18 07:07:24;;;;;;;13.73;4.93;;;18.20;99.90;;;;;;5005626;28;20045;-85
2023/09/18 07:09:51;;;;;;;12.27;5.13;;;18.10;99.90;;;;;;5004329;28;20055;-86
2023/09/18 07:12:19;;;;;;;12.38;4.70;;;18.00;99.90;;;;;;5004751;28;20531;-85
2023/09/18 07:14:47;;;;;;;10.43;5.07;;;18.00;99.90;;;;;;5010806;28;20038;-85
2023/09/18 07:17:13;;;;;;;8.98;4.55;;;18.00;99.90;;;;;;5001010;28;20046;-84
2023/09/18 07:19:39;;;;;;;14.23;3.92;;;18.30;99.90;;;;;;5007527;28;20030;-85
2023/09/18 07:22:04;;;;;;;10.10;3.53;;;18.60;99.90;;;;;;5009321;28;20037;-85
2023/09/18 07:24:30;;;;;;;9.20;3.45;;;18.70;99.90;;;;;;5008863;28;20030;-84
2023/09/18 07:26:57;;;;;;;12.02;3.50;;;18.90;99.90;;;;;;5009092;28;20130;-84
2023/09/18 07:29:25;;;;;;;9.48;2.65;;;19.00;99.90;;;;;;5010346;28;20077;-84
2023/09/18 07:31:51;;;;;;;12.20;3.00;;;19.10;99.90;;;;;;4999963;28;20030;-84
2023/09/18 07:34:17;;;;;;;13.85;3.10;;;19.00;99.90;;;;;;5008229;28;20030;-87
2023/09/18 07:36:44;;;;;;;10.40;2.97;;;18.90;99.90;;;;;;5012507;28;20041;-87
2023/09/18 07:39:11;;;;;;;10.38;2.88;;;18.80;99.90;;;;;;5012942;28;20026;-90
2023/09/18 07:41:37;;;;;;;9.25;2.97;;;18.70;99.90;;;;;;5010913;28;20084;-84
2023/09/18 07:44:03;;;;;;;7.53;2.30;;;18.90;99.90;;;;;;5011846;28;20065;-85
2023/09/18 07:46:29;;;;;;;10.82;2.60;;;19.40;99.90;;;;;;4996615;28;20088;-86
2023/09/18 07:48:54;;;;;;;11.32;2.45;;;19.90;99.90;;;;;;4994293;28;20094;-91
2023/09/18 07:51:20;;;;;;;7.28;2.13;;;20.30;99.90;;;;;;4995269;28;20060;-88
2023/09/18 07:53:46;;;;;;;8.65;2.22;;;20.80;99.90;;;;;;4998737;28;20033;-90
2023/09/18 07:56:12;;;;;;;8.35;1.70;;;21.20;99.90;;;;;;5012203;28;20054;-86
2023/09/18 07:58:38;;;;;;;7.10;1.75;;;23.20;99.90;;;;;;5008681;28;20551;-87
2023/09/18 08:12:13;;;;;;;8.07;1.65;;;22.20;99.90;;;;;;5385135;23;20057;-87
2023/09/18 08:14:38;;;;;;;9.40;1.60;;;21.50;99.90;;;;;;4874047;29;20040;-89
2023/09/18 08:17:04;;;;;;;4.95;1.05;;;20.80;99.90;;;;;;4871551;29;20037;-89
2023/09/18 08:19:32;;;;;;;7.07;1.50;;;20.40;99.90;;;;;;4878583;29;20033;-87
2023/09/18 08:21:59;;;;;;;6.63;1.23;;;20.10;99.90;;;;;;4882620;29;20057;-89
2023/09/18 08:24:25;;;;;;;8.05;1.70;;;20.00;99.90;;;;;;4883743;29;20033;-87
2023/09/18 08:26:51;;;;;;;6.13;1.58;;;20.10;99.90;;;;;;4886547;29;20048;-89
2023/09/18 08:29:17;;;;;;;5.20;1.55;;;20.40;99.90;;;;;;4888933;29;20088;-85
2023/09/18 08:31:43;;;;;;;8.70;1.52;;;20.50;99.90;;;;;;4883937;29;20033;-90
2023/09/18 08:34:08;;;;;;;6.57;1.63;;;20.20;99.90;;;;;;4882305;29;20036;-89
2023/09/18 08:36:34;;;;;;;6.70;1.50;;;20.20;99.90;;;;;;4881783;29;20044;-86
2023/09/18 08:38:59;;;;;;;5.85;1.50;;;20.40;99.90;;;;;;4879168;29;20431;-92
2023/09/18 08:41:28;;;;;;;7.85;3.03;;;20.70;99.90;;;;;;4889796;29;20033;-91
2023/09/18 08:44:03;;;;;;;9.68;2.55;;;21.00;99.90;;;;;;4882948;29;20047;-89
2023/09/18 08:46:29;;;;;;;7.28;2.10;;;21.00;99.90;;;;;;4876393;29;20028;-86
2023/09/18 08:48:56;;;;;;;10.32;3.63;;;20.90;99.90;;;;;;4879181;29;20040;-86
2023/09/18 08:51:23;;;;;;;10.30;3.15;;;20.80;99.90;;;;;;4879474;29;20033;-86
2023/09/18 08:53:49;;;;;;;11.27;2.80;;;21.00;99.90;;;;;;4877489;29;20044;-88
2023/09/18 08:56:16;;;;;;;11.07;3.03;;;20.80;99.90;;;;;;4883056;29;20115;-91
2023/09/18 08:58:43;;;;;;;10.90;3.05;;;20.50;99.90;;;;;;4879221;29;20025;-87
2023/09/18 09:01:10;;;;;;;7.35;2.67;;;20.00;99.90;;;;;;4881264;29;20096;-89
2023/09/18 09:03:39;;;;;;;11.45;3.78;;;19.50;99.90;;;;;;4884013;29;20491;-89
2023/09/18 09:06:09;;;;;;;7.93;2.92;;;19.30;99.90;;;;;;4875629;29;20090;-88
2023/09/18 09:08:36;;;;;;;15.52;3.20;;;18.90;99.90;;;;;;4857929;29;20072;-88
2023/09/18 09:11:02;;;;;;;12.05;2.50;;;18.60;99.90;;;;;;4855893;29;20135;-84
2023/09/18 09:13:28;;;;;;;13.15;2.72;;;18.30;99.90;;;;;;4854669;29;20046;-80
2023/09/18 09:15:56;;;;;;;9.70;2.67;;;18.20;99.90;;;;;;4855538;29;20066;-82
2023/09/18 09:18:24;;;;;;;6.57;2.85;;;18.00;99.90;;;;;;4856785;29;20073;-85
2023/09/18 09:20:58;;;;;;;8.63;2.00;;;17.90;99.90;;;;;;4872344;29;20039;-85
2023/09/18 09:23:25;;;;;;;7.18;2.33;;;17.60;99.90;;;;;;4870710;29;20157;-81
2023/09/18 09:25:50;;;;;;;5.38;1.75;;;17.40;99.90;;;;;;4872136;29;20650;-83
2023/09/18 09:28:16;;;;;;;6.50;2.05;;;16.90;99.90;;;;;;4874103;29;20112;-85
2023/09/18 09:30:42;;;;;;;4.07;2.20;;;16.30;99.90;;;;;;4864607;29;20523;-84
2023/09/18 09:33:12;;;;;;;8.00;2.20;;;15.90;99.90;;;;;;4855329;29;20036;-89
2023/09/18 09:35:39;;;;;;;8.32;2.30;;;15.70;99.90;;;;;;4855417;29;20080;-79
2023/09/18 09:38:10;;;;;;;9.55;2.60;;;15.60;99.90;;;;;;4867014;29;20068;-82
2023/09/18 09:40:39;;;;;;;12.75;2.83;;;15.60;99.90;;;;;;4849230;29;20033;-82
2023/09/18 09:43:14;;;;;;;8.68;3.25;;;15.60;99.90;;;;;;4853028;29;20041;-87
2023/09/18 09:45:41;;;;;;;11.85;3.33;;;15.80;99.90;;;;;;4873466;29;20598;-82
2023/09/18 09:48:08;;;;;;;9.98;3.03;;;15.90;99.90;;;;;;4868265;29;20425;-84
2023/09/18 09:50:46;;;;;;;9.93;3.60;;;16.00;99.90;;;;;;4859196;29;20727;-84
2023/09/18 09:53:13;;;;;;;11.40;3.20;;;16.10;99.90;;;;;;4866966;29;20029;-86
2023/09/18 09:55:38;;;;;;;12.48;2.85;;;16.20;99.90;;;;;;4872378;29;20033;-89
2023/09/18 09:58:05;;;;;;;14.23;3.60;;;16.30;99.90;;;;;;4868300;29;20041;-89
2023/09/18 10:00:47;;;;;;;13.48;3.20;;;16.40;99.90;;;;;;4875202;29;20068;-83
2023/09/18 10:03:15;;;;;;;21.58;3.83;;;16.60;99.90;;;;;;4871517;29;20518;-83
2023/09/18 10:05:43;;;;;;;18.20;3.22;;;16.70;99.90;;;;;;4864061;29;20025;-84
2023/09/18 10:08:16;;;;;;;18.85;3.58;;;16.90;99.90;;;;;;4864736;29;20037;-83
2023/09/18 10:10:56;;;;;;;22.98;3.85;;;16.90;99.90;;;;;;4865873;29;20037;-80
2023/09/18 10:13:32;;;;;;;23.33;3.88;;;17.10;99.90;;;;;;4869078;29;20101;-83
2023/09/18 10:16:02;;;;;;;26.52;4.28;;;17.50;99.90;;;;;;4852645;29;20033;-82
2023/09/18 10:18:44;;;;;;;28.75;3.55;;;17.80;99.90;;;;;;4854299;29;20049;-80
2023/09/18 10:21:17;;;;;;;20.60;3.45;;;17.70;99.90;;;;;;4853558;29;20089;-84
2023/09/18 10:24:04;;;;;;;21.55;3.33;;;17.60;99.90;;;;;;4857531;29;20060;-84
2023/09/18 10:26:33;;;;;;;22.75;3.92;;;17.50;99.90;;;;;;4875458;29;20025;-83
2023/09/18 10:29:03;;;;;;;20.02;3.33;;;17.50;99.90;;;;;;4869617;29;20759;-84
2023/09/18 10:31:29;;;;;;;26.17;3.42;;;17.40;99.90;;;;;;4867835;29;20056;-86
2023/09/18 10:33:57;;;;;;;21.83;2.83;;;17.30;99.90;;;;;;4877965;29;20064;-83
2023/09/18 10:36:25;;;;;;;17.00;3.08;;;17.30;99.90;;;;;;4873922;29;20044;-85
2023/09/18 10:38:52;;;;;;;19.48;3.13;;;17.40;99.90;;;;;;4868341;29;20625;-87
2023/09/18 10:41:20;;;;;;;12.48;2.33;;;18.20;99.90;;;;;;4860814;29;20124;-85
2023/09/18 10:43:49;;;;;;;17.15;2.33;;;18.20;99.90;;;;;;4859343;29;20560;-81
2023/09/18 10:46:15;;;;;;;22.20;3.00;;;18.10;99.90;;;;;;4873397;29;20060;-84
2023/09/18 10:48:42;;;;;;;17.90;2.78;;;18.00;99.90;;;;;;4873511;29;20055;-83
2023/09/18 10:51:09;;;;;;;21.60;3.13;;;18.10;99.90;;;;;;4872687;29;20071;-86
2023/09/18 10:53:35;;;;;;;14.07;2.33;;;18.50;99.90;;;;;;4873700;29;20056;-87
2023/09/18 10:56:04;;;;;;;19.17;2.63;;;18.60;99.90;;;;;;4873488;29;20060;-83
2023/09/18 10:58:30;;;;;;;12.68;2.00;;;18.30;99.90;;;;;;4873724;29;20107;-81
2023/09/18 11:00:59;;;;;;;20.55;3.03;;;18.10;99.90;;;;;;4870397;29;20028;-87
2023/09/18 11:03:25;;;;;;;15.52;2.45;;;18.30;99.90;;;;;;4860847;29;20131;-85
2023/09/18 11:06:06;;;;;;;14.32;2.10;;;18.70;99.90;;;;;;4868498;29;20795;-84
2023/09/18 11:08:33;;;;;;;;;;;19.20;99.90;;;;;;4873552;29;20501;-88
2023/09/18 11:11:09;;;;;;;16.38;2.03;;;19.40;99.90;;;;;;4872924;29;20010;-86
2023/09/18 11:13:37;;;;;;;15.40;2.28;;;20.90;99.90;;;;;;4855296;29;20049;-86
2023/09/18 11:16:28;;;;;;;12.35;1.85;;;21.30;99.90;;;;;;4871749;29;20122;-90
2023/09/18 11:19:05;;;;;;;11.10;1.80;;;21.40;99.90;;;;;;4872743;29;20610;-88
2023/09/18 11:21:32;;;;;;;14.27;1.55;;;21.30;99.90;;;;;;4879550;29;20040;-83
2023/09/18 11:24:11;;;;;;;11.70;1.52;;;20.90;99.90;;;;;;4892319;29;20487;-83
2023/09/18 11:26:40;;;;;;;9.32;1.75;;;20.50;99.90;;;;;;4881804;29;20052;-81
2023/09/18 11:29:15;;;;;;;11.05;1.70;;;20.10;99.90;;;;;;4863787;29;20395;-79
2023/09/18 11:31:50;;;;;;;7.28;1.80;;;19.90;99.90;;;;;;4869361;29;20136;-79
2023/09/18 11:34:16;;;;;;;10.93;1.70;;;19.90;99.90;;;;;;4874805;29;20075;-83
2023/09/18 11:36:42;;;;;;;14.18;2.42;;;19.80;99.90;;;;;;4869907;29;20532;-80
2023/09/18 11:39:09;;;;;;;13.75;2.00;;;19.60;99.90;;;;;;4863903;29;20124;-83
2023/09/18 11:41:38;;;;;;;8.80;1.80;;;20.30;99.90;;;;;;4853476;29;20048;-81
2023/09/18 11:44:19;;;;;;;8.80;1.52;;;20.90;99.90;;;;;;4853407;29;20017;-79
2023/09/18 11:46:51;;;;;;;10.50;1.85;;;21.30;99.90;;;;;;4856469;29;20034;-80
2023/09/18 11:49:27;;;;;;;11.20;1.48;;;21.90;99.90;;;;;;4863828;29;20029;-86
2023/09/18 11:51:54;;;;;;;9.05;1.35;;;22.60;99.90;;;;;;4872910;29;20125;-81
2023/09/18 11:54:21;;;;;;;7.07;1.35;;;23.00;99.90;;;;;;4874974;29;20033;-83
2023/09/18 11:56:47;;;;;;;6.93;1.33;;;23.20;99.90;;;;;;4884205;23;20052;-75
2023/09/18 11:59:13;;;;;;;4.60;1.00;;;23.30;99.90;;;;;;4862116;29;20630;-72
2023/09/18 12:01:46;;;;;;;5.93;1.13;;;23.30;99.90;;;;;;4860461;29;20029;-75
2023/09/18 12:04:12;;;;;;;6.22;0.88;;;23.10;99.90;;;;;;4850699;29;20122;-76
2023/09/18 12:06:42;;;;;;;4.15;0.80;;;22.60;99.90;;;;;;4862819;29;20061;-76
2023/09/18 12:09:08;;;;;;;6.10;0.90;;;21.90;99.90;;;;;;4875028;29;20045;-72
2023/09/18 12:11:35;;;;;;;3.17;0.80;;;21.30;99.90;;;;;;4862843;29;20028;-75
2023/09/18 12:14:02;;;;;;;5.45;1.30;;;20.90;99.90;;;;;;4863054;29;20116;-84
2023/09/18 12:16:28;;;;;;;2.20;0.80;;;20.80;99.90;;;;;;4857296;29;20514;-76
2023/09/18 12:18:54;;;;;;;2.97;0.70;;;20.90;99.90;;;;;;4863708;29;20112;-76
2023/09/18 12:21:19;;;;;;;3.28;0.90;;;20.90;99.90;;;;;;4864841;29;20109;-75
2023/09/18 12:23:46;;;;;;;4.40;1.00;;;21.10;99.90;;;;;;4859607;29;20427;-76
2023/09/18 12:26:17;;;;;;;3.33;0.77;;;21.10;99.90;;;;;;4862569;29;20120;-78
2023/09/18 12:28:44;;;;;;;1.85;0.77;;;21.30;99.90;;;;;;4860501;29;20037;-74
2023/09/18 12:31:16;;;;;;;3.17;1.00;;;21.40;99.90;;;;;;4866332;29;20033;-85
2023/09/18 12:33:43;;;;;;;3.65;1.00;;;21.50;99.90;;;;;;4859560;29;20163;-77
2023/09/18 12:36:10;;;;;;;2.22;0.93;;;21.70;99.90;;;;;;4867159;29;20273;-76
2023/09/18 12:38:36;;;;;;;3.00;0.80;;;21.50;99.90;;;;;;4866042;29;20068;-74
2023/09/18 12:41:06;;;;;;;2.78;0.90;;;21.30;99.90;;;;;;4852288;29;20085;-75
2023/09/18 12:43:43;;;;;;;2.35;0.77;;;21.00;99.90;;;;;;4849420;29;20033;-76
2023/09/18 12:46:09;;;;;;;2.90;0.80;;;20.60;99.90;;;;;;4879777;29;20032;-81
2023/09/18 12:48:45;;;;;;;1.83;0.68;;;20.30;99.90;;;;;;4863800;29;20041;-79
2023/09/18 12:51:11;;;;;;;2.47;0.70;;;20.00;99.90;;;;;;4855272;29;20041;-80
2023/09/18 12:53:37;;;;;;;1.83;0.75;;;20.40;99.90;;;;;;4869965;29;20036;-73